This is the latest recevied weather packets stored in our database for station/object CA2JAT-13. If no packets are shown the sender has not sent any weather packets the latest 10 day(s).
| Time | Temp. | Humidity | Pressure | Rain* | Wind** | Luminosity | Snow |
|---|---|---|---|---|---|---|---|
| 1778227531 | 7.22° C | 73% | 1018.7 hPa | 0 mm | - | 0 W/m² | - |
| 1778225727 | 7.22° C | 73% | 1019.5 hPa | 0 mm | - | 0 W/m² | - |
| 1778223924 | 7.78° C | 72% | 1019.4 hPa | 0 mm | - | 0 W/m² | - |
| 1778222120 | 8.33° C | 71% | 1019.7 hPa | 0 mm | - | 0 W/m² | - |
| 1778220317 | 8.89° C | 69% | 1019.5 hPa | 0 mm | - | 0 W/m² | - |
| 1778218512 | 8.89° C | 68% | 1019.2 hPa | 0 mm | - | 0 W/m² | - |
| 1778216708 | 8.89° C | 68% | 1019.5 hPa | 0 mm | - | 0 W/m² | - |
| 1778214904 | 8.89° C | 67% | 1019.6 hPa | 0 mm | - | 0 W/m² | - |
| 1778213100 | 10° C | 67% | 1019.1 hPa | 0 mm | - | 0 W/m² | - |
| 1778211297 | 10.56° C | 64% | 1019 hPa | 0 mm | - | 0 W/m² | - |
| 1778209494 | 10.56° C | 66% | 1019.5 hPa | 0 mm | - | 0 W/m² | - |
| 1778207690 | 11.11° C | 63% | 1019 hPa | 0 mm | - | 0 W/m² | - |
| 1778205886 | 11.11° C | 64% | 1019.1 hPa | 0 mm | - | 0 W/m² | - |
| 1778204081 | 12.78° C | 58% | 1019.2 hPa | 0 mm | - | 0 W/m² | - |
| 1778202228 | 13.89° C | 57% | 1018.8 hPa | 0 mm | - | 0 W/m² | - |
| 1778200424 | 14.44° C | 53% | 1018.7 hPa | 0 mm | - | 0 W/m² | - |
| 1778198620 | 15.56° C | 53% | 1018.6 hPa | 0 mm | - | 0 W/m² | - |
| 1778196816 | 17.22° C | 49% | 1017.9 hPa | 0 mm | - | 0 W/m² | - |
| 1778195011 | 18.33° C | 45% | 1017.3 hPa | 0 mm | - | 0 W/m² | - |
| 1778193208 | 18.89° C | 43% | 1016.8 hPa | 0 mm | - | 0 W/m² | - |
| 1778191405 | 20.56° C | 40% | 1016.4 hPa | 0 mm | - | 17 W/m² | - |
| 1778189601 | 21.11° C | 38% | 1015.7 hPa | 0 mm | - | 28 W/m² | - |
| 1778185996 | 22.22° C | 38% | 1015.3 hPa | 0 mm | - | 280 W/m² | - |
| 1778184191 | 23.89° C | 26% | 1015.1 hPa | 0 mm | - | 418 W/m² | - |
| 1778182387 | 24.44° C | 19% | 1015.5 hPa | 0 mm | - | 498 W/m² | - |
* Rain latest hour (hover to see other rain measurements)
** Current wind speed in m/s (hover to see current wind gust speed)